sensor_id;sensor_type;location;lat;lon;timestamp;P1;durP1;ratioP1;P2;durP2;ratioP2
45338;SDS011;31071;51.478;5.710;2023-07-22T00:01:05;17.52;;;10.13;;
45338;SDS011;31071;51.478;5.710;2023-07-22T00:03:34;14.00;;;10.30;;
45338;SDS011;31071;51.478;5.710;2023-07-22T00:06:06;17.85;;;11.15;;
45338;SDS011;31071;51.478;5.710;2023-07-22T00:08:41;15.45;;;10.48;;
45338;SDS011;31071;51.478;5.710;2023-07-22T00:11:13;18.15;;;10.23;;
45338;SDS011;31071;51.478;5.710;2023-07-22T00:13:39;15.48;;;11.13;;
45338;SDS011;31071;51.478;5.710;2023-07-22T00:16:05;16.05;;;10.93;;
45338;SDS011;31071;51.478;5.710;2023-07-22T00:18:32;15.63;;;10.95;;
45338;SDS011;31071;51.478;5.710;2023-07-22T00:20:58;17.45;;;10.85;;
45338;SDS011;31071;51.478;5.710;2023-07-22T00:23:24;19.77;;;11.82;;
45338;SDS011;31071;51.478;5.710;2023-07-22T00:25:56;16.48;;;11.15;;
45338;SDS011;31071;51.478;5.710;2023-07-22T00:28:30;17.13;;;11.45;;
45338;SDS011;31071;51.478;5.710;2023-07-22T00:30:56;16.25;;;10.90;;
45338;SDS011;31071;51.478;5.710;2023-07-22T00:33:22;18.75;;;11.38;;
45338;SDS011;31071;51.478;5.710;2023-07-22T00:35:48;18.30;;;11.38;;
45338;SDS011;31071;51.478;5.710;2023-07-22T00:38:20;19.42;;;11.35;;
45338;SDS011;31071;51.478;5.710;2023-07-22T00:40:46;19.92;;;12.23;;
45338;SDS011;31071;51.478;5.710;2023-07-22T00:43:21;16.60;;;11.17;;
45338;SDS011;31071;51.478;5.710;2023-07-22T00:45:53;16.23;;;11.52;;
45338;SDS011;31071;51.478;5.710;2023-07-22T00:48:19;17.33;;;11.68;;
45338;SDS011;31071;51.478;5.710;2023-07-22T00:50:45;19.55;;;12.23;;
45338;SDS011;31071;51.478;5.710;2023-07-22T00:53:14;19.67;;;12.43;;
45338;SDS011;31071;51.478;5.710;2023-07-22T00:55:51;17.77;;;11.50;;
45338;SDS011;31071;51.478;5.710;2023-07-22T00:58:25;19.35;;;12.05;;
45338;SDS011;31071;51.478;5.710;2023-07-22T01:00:59;15.63;;;11.15;;
45338;SDS011;31071;51.478;5.710;2023-07-22T01:03:25;15.45;;;11.45;;
45338;SDS011;31071;51.478;5.710;2023-07-22T01:05:51;18.67;;;11.63;;
45338;SDS011;31071;51.478;5.710;2023-07-22T01:08:18;20.10;;;12.48;;
45338;SDS011;31071;51.478;5.710;2023-07-22T01:10:47;18.67;;;12.07;;
45338;SDS011;31071;51.478;5.710;2023-07-22T01:13:19;19.20;;;12.05;;
45338;SDS011;31071;51.478;5.710;2023-07-22T01:15:45;18.52;;;11.88;;
45338;SDS011;31071;51.478;5.710;2023-07-22T01:18:11;18.27;;;11.70;;
45338;SDS011;31071;51.478;5.710;2023-07-22T01:20:37;17.13;;;11.50;;
45338;SDS011;31071;51.478;5.710;2023-07-22T01:23:24;18.98;;;12.07;;
45338;SDS011;31071;51.478;5.710;2023-07-22T01:26:05;16.65;;;11.85;;
45338;SDS011;31071;51.478;5.710;2023-07-22T01:28:37;17.00;;;12.18;;
45338;SDS011;31071;51.478;5.710;2023-07-22T01:31:28;17.55;;;12.25;;
45338;SDS011;31071;51.478;5.710;2023-07-22T01:33:54;18.45;;;11.93;;
45338;SDS011;31071;51.478;5.710;2023-07-22T01:36:20;17.42;;;11.77;;
45338;SDS011;31071;51.478;5.710;2023-07-22T01:38:45;18.23;;;12.18;;
45338;SDS011;31071;51.478;5.710;2023-07-22T01:41:11;19.50;;;12.18;;
45338;SDS011;31071;51.478;5.710;2023-07-22T01:43:37;19.13;;;11.80;;
45338;SDS011;31071;51.478;5.710;2023-07-22T01:46:02;20.50;;;12.80;;
45338;SDS011;31071;51.478;5.710;2023-07-22T01:48:28;21.15;;;11.85;;
45338;SDS011;31071;51.478;5.710;2023-07-22T01:51:29;17.92;;;12.10;;
45338;SDS011;31071;51.478;5.710;2023-07-22T01:54:06;19.30;;;11.73;;
45338;SDS011;31071;51.478;5.710;2023-07-22T01:56:32;19.00;;;12.25;;
45338;SDS011;31071;51.478;5.710;2023-07-22T01:58:58;19.90;;;12.88;;
45338;SDS011;31071;51.478;5.710;2023-07-22T02:04:05;19.88;;;12.48;;
45338;SDS011;31071;51.478;5.710;2023-07-22T02:06:31;19.60;;;12.48;;
45338;SDS011;31071;51.478;5.710;2023-07-22T02:08:57;21.33;;;12.82;;
45338;SDS011;31071;51.478;5.710;2023-07-22T02:11:23;17.33;;;11.90;;
45338;SDS011;31071;51.478;5.710;2023-07-22T02:13:52;16.50;;;12.35;;
45338;SDS011;31071;51.478;5.710;2023-07-22T02:19:42;21.90;;;13.47;;
45338;SDS011;31071;51.478;5.710;2023-07-22T02:22:17;20.45;;;11.77;;
45338;SDS011;31071;51.478;5.710;2023-07-22T02:24:43;17.92;;;11.88;;
45338;SDS011;31071;51.478;5.710;2023-07-22T02:27:09;17.08;;;11.88;;
45338;SDS011;31071;51.478;5.710;2023-07-22T02:29:35;20.00;;;11.82;;
45338;SDS011;31071;51.478;5.710;2023-07-22T02:32:01;20.42;;;11.45;;
45338;SDS011;31071;51.478;5.710;2023-07-22T02:34:28;20.27;;;12.10;;
45338;SDS011;31071;51.478;5.710;2023-07-22T02:36:54;18.38;;;11.15;;
45338;SDS011;31071;51.478;5.710;2023-07-22T02:39:19;16.67;;;10.80;;
45338;SDS011;31071;51.478;5.710;2023-07-22T02:41:45;15.88;;;10.90;;
45338;SDS011;31071;51.478;5.710;2023-07-22T02:44:14;17.50;;;10.95;;
45338;SDS011;31071;51.478;5.710;2023-07-22T02:46:40;19.48;;;10.82;;
45338;SDS011;31071;51.478;5.710;2023-07-22T02:49:08;18.63;;;12.20;;
45338;SDS011;31071;51.478;5.710;2023-07-22T02:51:33;19.65;;;12.02;;
45338;SDS011;31071;51.478;5.710;2023-07-22T02:53:59;17.45;;;12.20;;
45338;SDS011;31071;51.478;5.710;2023-07-22T02:56:28;18.90;;;11.55;;
45338;SDS011;31071;51.478;5.710;2023-07-22T02:58:54;18.15;;;11.70;;
45338;SDS011;31071;51.478;5.710;2023-07-22T03:01:26;20.05;;;11.50;;
45338;SDS011;31071;51.478;5.710;2023-07-22T03:04:06;18.25;;;11.90;;
45338;SDS011;31071;51.478;5.710;2023-07-22T03:06:32;21.30;;;13.15;;
45338;SDS011;31071;51.478;5.710;2023-07-22T03:08:58;21.88;;;12.55;;
45338;SDS011;31071;51.478;5.710;2023-07-22T03:11:24;17.48;;;10.65;;
45338;SDS011;31071;51.478;5.710;2023-07-22T03:13:50;18.23;;;11.75;;
45338;SDS011;31071;51.478;5.710;2023-07-22T03:16:16;20.95;;;12.35;;
45338;SDS011;31071;51.478;5.710;2023-07-22T03:18:54;24.50;;;12.30;;
45338;SDS011;31071;51.478;5.710;2023-07-22T03:21:28;16.75;;;12.05;;
45338;SDS011;31071;51.478;5.710;2023-07-22T03:24:06;22.13;;;12.63;;
45338;SDS011;31071;51.478;5.710;2023-07-22T03:26:59;19.73;;;12.23;;
45338;SDS011;31071;51.478;5.710;2023-07-22T03:29:54;18.88;;;12.88;;
45338;SDS011;31071;51.478;5.710;2023-07-22T03:35:37;22.42;;;12.60;;
45338;SDS011;31071;51.478;5.710;2023-07-22T03:38:03;22.55;;;12.63;;
45338;SDS011;31071;51.478;5.710;2023-07-22T03:40:29;20.17;;;12.45;;
45338;SDS011;31071;51.478;5.710;2023-07-22T03:42:56;19.13;;;12.02;;
45338;SDS011;31071;51.478;5.710;2023-07-22T03:45:40;19.95;;;12.77;;
45338;SDS011;31071;51.478;5.710;2023-07-22T03:48:09;22.58;;;13.35;;
45338;SDS011;31071;51.478;5.710;2023-07-22T03:50:46;21.77;;;13.02;;
45338;SDS011;31071;51.478;5.710;2023-07-22T03:53:26;20.92;;;12.38;;
45338;SDS011;31071;51.478;5.710;2023-07-22T03:56:21;19.50;;;12.90;;
45338;SDS011;31071;51.478;5.710;2023-07-22T03:59:06;22.30;;;13.70;;
45338;SDS011;31071;51.478;5.710;2023-07-22T04:01:38;23.13;;;13.57;;
45338;SDS011;31071;51.478;5.710;2023-07-22T04:04:07;22.63;;;13.85;;
45338;SDS011;31071;51.478;5.710;2023-07-22T04:06:42;21.90;;;12.90;;
45338;SDS011;31071;51.478;5.710;2023-07-22T04:09:08;20.98;;;12.80;;
45338;SDS011;31071;51.478;5.710;2023-07-22T04:11:34;23.17;;;12.55;;
45338;SDS011;31071;51.478;5.710;2023-07-22T04:14:00;22.17;;;13.40;;
45338;SDS011;31071;51.478;5.710;2023-07-22T04:16:29;20.42;;;13.48;;
45338;SDS011;31071;51.478;5.710;2023-07-22T04:19:35;24.10;;;12.85;;
45338;SDS011;31071;51.478;5.710;2023-07-22T04:22:12;26.50;;;12.82;;
45338;SDS011;31071;51.478;5.710;2023-07-22T04:24:38;19.55;;;12.20;;
45338;SDS011;31071;51.478;5.710;2023-07-22T04:27:04;22.48;;;12.73;;
45338;SDS011;31071;51.478;5.710;2023-07-22T04:29:30;23.13;;;13.07;;
45338;SDS011;31071;51.478;5.710;2023-07-22T04:31:59;21.17;;;13.25;;
45338;SDS011;31071;51.478;5.710;2023-07-22T04:34:29;20.05;;;12.65;;
45338;SDS011;31071;51.478;5.710;2023-07-22T04:36:56;21.33;;;13.40;;
45338;SDS011;31071;51.478;5.710;2023-07-22T04:42:21;21.00;;;13.45;;
45338;SDS011;31071;51.478;5.710;2023-07-22T04:44:47;22.42;;;12.93;;
45338;SDS011;31071;51.478;5.710;2023-07-22T04:47:13;23.52;;;13.18;;
45338;SDS011;31071;51.478;5.710;2023-07-22T04:49:39;21.90;;;13.23;;
45338;SDS011;31071;51.478;5.710;2023-07-22T04:52:05;25.02;;;13.18;;
45338;SDS011;31071;51.478;5.710;2023-07-22T04:54:41;20.50;;;12.68;;
45338;SDS011;31071;51.478;5.710;2023-07-22T04:57:27;22.17;;;13.45;;
45338;SDS011;31071;51.478;5.710;2023-07-22T04:59:53;20.73;;;13.07;;
45338;SDS011;31071;51.478;5.710;2023-07-22T05:02:36;22.98;;;13.75;;
45338;SDS011;31071;51.478;5.710;2023-07-22T05:05:43;22.70;;;13.52;;
45338;SDS011;31071;51.478;5.710;2023-07-22T05:08:33;23.05;;;13.60;;
45338;SDS011;31071;51.478;5.710;2023-07-22T05:10:59;20.23;;;13.52;;
45338;SDS011;31071;51.478;5.710;2023-07-22T05:13:29;21.23;;;13.02;;
45338;SDS011;31071;51.478;5.710;2023-07-22T05:15:55;23.25;;;13.07;;
45338;SDS011;31071;51.478;5.710;2023-07-22T05:18:44;22.00;;;13.82;;
45338;SDS011;31071;51.478;5.710;2023-07-22T05:21:21;24.20;;;14.30;;
45338;SDS011;31071;51.478;5.710;2023-07-22T05:23:49;24.23;;;13.77;;
45338;SDS011;31071;51.478;5.710;2023-07-22T05:26:18;23.45;;;14.10;;
45338;SDS011;31071;51.478;5.710;2023-07-22T05:28:44;24.42;;;14.38;;
45338;SDS011;31071;51.478;5.710;2023-07-22T05:31:10;21.27;;;14.38;;
45338;SDS011;31071;51.478;5.710;2023-07-22T05:33:37;24.73;;;13.85;;
45338;SDS011;31071;51.478;5.710;2023-07-22T05:36:03;24.30;;;14.43;;
45338;SDS011;31071;51.478;5.710;2023-07-22T05:38:29;27.33;;;14.00;;
45338;SDS011;31071;51.478;5.710;2023-07-22T05:41:14;22.70;;;13.68;;
45338;SDS011;31071;51.478;5.710;2023-07-22T05:43:40;22.33;;;13.27;;
45338;SDS011;31071;51.478;5.710;2023-07-22T05:46:06;23.80;;;13.27;;
45338;SDS011;31071;51.478;5.710;2023-07-22T05:48:32;21.80;;;13.27;;
45338;SDS011;31071;51.478;5.710;2023-07-22T05:50:57;21.13;;;12.88;;
45338;SDS011;31071;51.478;5.710;2023-07-22T05:53:23;22.02;;;13.60;;
45338;SDS011;31071;51.478;5.710;2023-07-22T05:55:49;23.35;;;13.23;;
45338;SDS011;31071;51.478;5.710;2023-07-22T05:58:17;21.75;;;13.57;;
45338;SDS011;31071;51.478;5.710;2023-07-22T06:00:44;24.77;;;13.82;;
45338;SDS011;31071;51.478;5.710;2023-07-22T06:03:10;22.08;;;14.07;;
45338;SDS011;31071;51.478;5.710;2023-07-22T06:05:36;23.65;;;13.50;;
45338;SDS011;31071;51.478;5.710;2023-07-22T06:08:01;25.42;;;14.38;;
45338;SDS011;31071;51.478;5.710;2023-07-22T06:10:27;28.83;;;15.00;;
45338;SDS011;31071;51.478;5.710;2023-07-22T06:12:53;28.45;;;14.05;;
45338;SDS011;31071;51.478;5.710;2023-07-22T06:15:19;22.88;;;13.65;;
45338;SDS011;31071;51.478;5.710;2023-07-22T06:17:51;22.27;;;13.85;;
45338;SDS011;31071;51.478;5.710;2023-07-22T06:20:19;23.13;;;13.75;;
45338;SDS011;31071;51.478;5.710;2023-07-22T06:22:45;25.17;;;13.65;;
45338;SDS011;31071;51.478;5.710;2023-07-22T06:25:10;27.50;;;14.38;;
45338;SDS011;31071;51.478;5.710;2023-07-22T06:27:39;27.05;;;13.30;;
45338;SDS011;31071;51.478;5.710;2023-07-22T06:30:04;24.30;;;13.80;;
45338;SDS011;31071;51.478;5.710;2023-07-22T06:32:30;28.60;;;13.93;;
45338;SDS011;31071;51.478;5.710;2023-07-22T06:34:56;23.42;;;13.27;;
45338;SDS011;31071;51.478;5.710;2023-07-22T06:37:23;30.48;;;14.70;;
45338;SDS011;31071;51.478;5.710;2023-07-22T06:39:49;24.80;;;13.68;;
45338;SDS011;31071;51.478;5.710;2023-07-22T06:42:18;25.00;;;13.88;;
45338;SDS011;31071;51.478;5.710;2023-07-22T06:44:44;24.90;;;12.95;;
45338;SDS011;31071;51.478;5.710;2023-07-22T06:47:10;24.70;;;14.50;;
45338;SDS011;31071;51.478;5.710;2023-07-22T06:49:35;28.92;;;13.18;;
45338;SDS011;31071;51.478;5.710;2023-07-22T06:52:01;25.85;;;14.45;;
45338;SDS011;31071;51.478;5.710;2023-07-22T06:54:27;23.17;;;13.68;;
45338;SDS011;31071;51.478;5.710;2023-07-22T06:56:53;22.73;;;12.98;;
45338;SDS011;31071;51.478;5.710;2023-07-22T06:59:19;25.13;;;14.10;;
45338;SDS011;31071;51.478;5.710;2023-07-22T07:01:45;25.00;;;13.85;;
45338;SDS011;31071;51.478;5.710;2023-07-22T07:04:10;25.05;;;15.07;;
45338;SDS011;31071;51.478;5.710;2023-07-22T07:06:36;26.23;;;14.10;;
45338;SDS011;31071;51.478;5.710;2023-07-22T07:09:03;31.50;;;15.00;;
45338;SDS011;31071;51.478;5.710;2023-07-22T07:11:30;27.10;;;15.02;;
45338;SDS011;31071;51.478;5.710;2023-07-22T07:13:56;21.77;;;13.75;;
45338;SDS011;31071;51.478;5.710;2023-07-22T07:18:50;26.27;;;14.90;;
45338;SDS011;31071;51.478;5.710;2023-07-22T07:21:16;26.33;;;15.13;;
45338;SDS011;31071;51.478;5.710;2023-07-22T07:23:43;26.02;;;13.43;;
45338;SDS011;31071;51.478;5.710;2023-07-22T07:26:09;25.40;;;13.82;;
45338;SDS011;31071;51.478;5.710;2023-07-22T07:28:34;23.05;;;13.38;;
45338;SDS011;31071;51.478;5.710;2023-07-22T07:31:00;28.17;;;13.45;;
45338;SDS011;31071;51.478;5.710;2023-07-22T07:33:26;28.02;;;14.23;;
45338;SDS011;31071;51.478;5.710;2023-07-22T07:35:51;24.17;;;14.05;;
45338;SDS011;31071;51.478;5.710;2023-07-22T07:38:17;21.75;;;12.45;;
45338;SDS011;31071;51.478;5.710;2023-07-22T07:40:42;27.33;;;13.02;;
45338;SDS011;31071;51.478;5.710;2023-07-22T07:43:08;23.75;;;13.63;;
45338;SDS011;31071;51.478;5.710;2023-07-22T07:45:34;22.13;;;12.48;;
45338;SDS011;31071;51.478;5.710;2023-07-22T07:48:03;19.65;;;11.93;;
45338;SDS011;31071;51.478;5.710;2023-07-22T07:50:29;22.05;;;12.25;;
45338;SDS011;31071;51.478;5.710;2023-07-22T07:52:54;25.58;;;12.25;;
45338;SDS011;31071;51.478;5.710;2023-07-22T07:55:24;22.00;;;11.88;;
45338;SDS011;31071;51.478;5.710;2023-07-22T07:57:50;18.95;;;11.88;;
45338;SDS011;31071;51.478;5.710;2023-07-22T08:00:21;28.85;;;12.43;;
45338;SDS011;31071;51.478;5.710;2023-07-22T08:02:46;18.73;;;11.25;;
45338;SDS011;31071;51.478;5.710;2023-07-22T08:05:12;24.73;;;12.38;;
45338;SDS011;31071;51.478;5.710;2023-07-22T08:07:38;21.83;;;12.45;;
45338;SDS011;31071;51.478;5.710;2023-07-22T08:10:05;23.05;;;11.82;;
45338;SDS011;31071;51.478;5.710;2023-07-22T08:12:32;20.55;;;11.68;;
45338;SDS011;31071;51.478;5.710;2023-07-22T08:14:58;21.42;;;11.00;;
45338;SDS011;31071;51.478;5.710;2023-07-22T08:17:24;22.25;;;11.38;;
45338;SDS011;31071;51.478;5.710;2023-07-22T08:19:50;20.67;;;10.80;;
45338;SDS011;31071;51.478;5.710;2023-07-22T08:22:16;21.95;;;11.27;;
45338;SDS011;31071;51.478;5.710;2023-07-22T08:24:41;18.17;;;10.73;;
45338;SDS011;31071;51.478;5.710;2023-07-22T08:27:07;24.48;;;11.32;;
45338;SDS011;31071;51.478;5.710;2023-07-22T08:29:34;19.98;;;11.02;;
45338;SDS011;31071;51.478;5.710;2023-07-22T08:31:59;17.05;;;10.40;;
45338;SDS011;31071;51.478;5.710;2023-07-22T08:34:25;22.23;;;10.30;;
45338;SDS011;31071;51.478;5.710;2023-07-22T08:36:51;19.80;;;10.27;;
45338;SDS011;31071;51.478;5.710;2023-07-22T08:39:17;19.05;;;10.02;;
45338;SDS011;31071;51.478;5.710;2023-07-22T08:41:44;21.90;;;9.57;;
45338;SDS011;31071;51.478;5.710;2023-07-22T08:44:18;17.08;;;9.13;;
45338;SDS011;31071;51.478;5.710;2023-07-22T08:46:46;18.35;;;9.57;;
45338;SDS011;31071;51.478;5.710;2023-07-22T08:49:12;16.17;;;9.13;;
45338;SDS011;31071;51.478;5.710;2023-07-22T08:51:40;12.90;;;8.07;;
45338;SDS011;31071;51.478;5.710;2023-07-22T08:54:06;15.60;;;8.82;;
45338;SDS011;31071;51.478;5.710;2023-07-22T08:56:33;21.23;;;9.15;;
45338;SDS011;31071;51.478;5.710;2023-07-22T08:59:00;20.08;;;9.50;;
45338;SDS011;31071;51.478;5.710;2023-07-22T09:01:26;18.70;;;9.45;;
45338;SDS011;31071;51.478;5.710;2023-07-22T09:03:52;20.92;;;9.80;;
45338;SDS011;31071;51.478;5.710;2023-07-22T09:06:19;14.55;;;8.90;;
45338;SDS011;31071;51.478;5.710;2023-07-22T09:08:45;15.23;;;8.68;;
45338;SDS011;31071;51.478;5.710;2023-07-22T09:11:11;16.45;;;9.02;;
45338;SDS011;31071;51.478;5.710;2023-07-22T09:13:37;17.55;;;8.13;;
45338;SDS011;31071;51.478;5.710;2023-07-22T09:16:05;15.38;;;8.70;;
45338;SDS011;31071;51.478;5.710;2023-07-22T09:18:34;12.00;;;7.97;;
45338;SDS011;31071;51.478;5.710;2023-07-22T09:21:00;16.30;;;8.00;;
45338;SDS011;31071;51.478;5.710;2023-07-22T09:23:36;14.02;;;8.10;;
45338;SDS011;31071;51.478;5.710;2023-07-22T09:26:10;16.00;;;8.77;;
45338;SDS011;31071;51.478;5.710;2023-07-22T09:28:49;16.70;;;8.30;;
45338;SDS011;31071;51.478;5.710;2023-07-22T09:31:22;13.55;;;8.55;;
45338;SDS011;31071;51.478;5.710;2023-07-22T09:33:49;17.05;;;8.43;;
45338;SDS011;31071;51.478;5.710;2023-07-22T09:36:15;14.52;;;7.68;;
45338;SDS011;31071;51.478;5.710;2023-07-22T09:38:41;14.20;;;7.90;;
45338;SDS011;31071;51.478;5.710;2023-07-22T09:41:07;12.85;;;7.22;;
45338;SDS011;31071;51.478;5.710;2023-07-22T09:43:37;14.10;;;7.00;;
45338;SDS011;31071;51.478;5.710;2023-07-22T09:46:07;13.25;;;6.32;;
45338;SDS011;31071;51.478;5.710;2023-07-22T09:48:39;15.07;;;6.55;;
45338;SDS011;31071;51.478;5.710;2023-07-22T09:51:06;11.73;;;6.68;;
45338;SDS011;31071;51.478;5.710;2023-07-22T09:53:44;11.73;;;6.95;;
45338;SDS011;31071;51.478;5.710;2023-07-22T09:56:10;7.60;;;6.20;;
45338;SDS011;31071;51.478;5.710;2023-07-22T09:58:36;12.15;;;6.03;;
45338;SDS011;31071;51.478;5.710;2023-07-22T10:01:02;12.60;;;6.35;;
45338;SDS011;31071;51.478;5.710;2023-07-22T10:03:29;7.03;;;5.00;;
45338;SDS011;31071;51.478;5.710;2023-07-22T10:05:56;9.68;;;5.43;;
45338;SDS011;31071;51.478;5.710;2023-07-22T10:08:25;12.07;;;5.43;;
45338;SDS011;31071;51.478;5.710;2023-07-22T10:10:55;7.15;;;4.68;;
45338;SDS011;31071;51.478;5.710;2023-07-22T10:13:25;9.50;;;5.22;;
45338;SDS011;31071;51.478;5.710;2023-07-22T10:15:51;10.73;;;6.20;;
45338;SDS011;31071;51.478;5.710;2023-07-22T10:18:17;10.35;;;5.20;;
45338;SDS011;31071;51.478;5.710;2023-07-22T10:20:45;8.93;;;5.00;;
45338;SDS011;31071;51.478;5.710;2023-07-22T10:23:11;7.53;;;4.90;;
45338;SDS011;31071;51.478;5.710;2023-07-22T10:25:39;7.57;;;5.10;;
45338;SDS011;31071;51.478;5.710;2023-07-22T10:28:06;7.10;;;4.45;;
45338;SDS011;31071;51.478;5.710;2023-07-22T10:30:32;9.52;;;5.10;;
45338;SDS011;31071;51.478;5.710;2023-07-22T10:32:58;12.50;;;5.22;;
45338;SDS011;31071;51.478;5.710;2023-07-22T10:37:55;5.90;;;4.78;;
45338;SDS011;31071;51.478;5.710;2023-07-22T10:40:31;7.28;;;4.40;;
45338;SDS011;31071;51.478;5.710;2023-07-22T10:43:03;8.15;;;4.75;;
45338;SDS011;31071;51.478;5.710;2023-07-22T10:49:06;10.85;;;5.05;;
45338;SDS011;31071;51.478;5.710;2023-07-22T10:51:36;8.70;;;5.05;;
45338;SDS011;31071;51.478;5.710;2023-07-22T10:54:02;10.35;;;4.22;;
45338;SDS011;31071;51.478;5.710;2023-07-22T10:56:35;6.05;;;3.88;;
45338;SDS011;31071;51.478;5.710;2023-07-22T10:59:00;4.95;;;3.83;;
45338;SDS011;31071;51.478;5.710;2023-07-22T11:04:09;8.07;;;4.40;;
45338;SDS011;31071;51.478;5.710;2023-07-22T11:11:52;10.02;;;3.60;;
45338;SDS011;31071;51.478;5.710;2023-07-22T11:14:23;5.20;;;2.90;;
45338;SDS011;31071;51.478;5.710;2023-07-22T11:16:49;8.55;;;3.45;;
45338;SDS011;31071;51.478;5.710;2023-07-22T11:19:20;4.85;;;3.50;;
45338;SDS011;31071;51.478;5.710;2023-07-22T11:21:48;3.20;;;2.90;;
45338;SDS011;31071;51.478;5.710;2023-07-22T11:24:15;5.93;;;3.20;;
45338;SDS011;31071;51.478;5.710;2023-07-22T11:26:41;4.10;;;2.60;;
45338;SDS011;31071;51.478;5.710;2023-07-22T11:29:08;3.35;;;2.20;;
45338;SDS011;31071;51.478;5.710;2023-07-22T11:31:39;2.35;;;2.00;;
45338;SDS011;31071;51.478;5.710;2023-07-22T11:34:10;5.07;;;2.55;;
45338;SDS011;31071;51.478;5.710;2023-07-22T11:36:36;6.85;;;2.50;;
45338;SDS011;31071;51.478;5.710;2023-07-22T11:39:05;4.22;;;2.72;;
45338;SDS011;31071;51.478;5.710;2023-07-22T11:41:32;3.58;;;2.13;;
45338;SDS011;31071;51.478;5.710;2023-07-22T11:43:58;6.38;;;2.40;;
45338;SDS011;31071;51.478;5.710;2023-07-22T11:46:25;6.45;;;2.38;;
45338;SDS011;31071;51.478;5.710;2023-07-22T11:48:54;8.18;;;2.70;;
45338;SDS011;31071;51.478;5.710;2023-07-22T11:51:21;6.43;;;2.50;;
45338;SDS011;31071;51.478;5.710;2023-07-22T11:53:49;5.65;;;2.50;;
45338;SDS011;31071;51.478;5.710;2023-07-22T11:56:23;3.28;;;2.20;;
45338;SDS011;31071;51.478;5.710;2023-07-22T11:58:52;3.55;;;2.30;;
45338;SDS011;31071;51.478;5.710;2023-07-22T12:01:21;6.57;;;2.80;;
45338;SDS011;31071;51.478;5.710;2023-07-22T12:03:47;3.92;;;2.38;;
45338;SDS011;31071;51.478;5.710;2023-07-22T12:06:14;4.57;;;2.40;;
45338;SDS011;31071;51.478;5.710;2023-07-22T12:08:45;4.70;;;2.60;;
45338;SDS011;31071;51.478;5.710;2023-07-22T12:11:18;5.93;;;2.47;;
45338;SDS011;31071;51.478;5.710;2023-07-22T12:13:45;6.05;;;2.60;;
45338;SDS011;31071;51.478;5.710;2023-07-22T12:16:11;6.65;;;2.30;;
45338;SDS011;31071;51.478;5.710;2023-07-22T12:18:42;6.53;;;2.42;;
45338;SDS011;31071;51.478;5.710;2023-07-22T12:21:08;6.75;;;2.83;;
45338;SDS011;31071;51.478;5.710;2023-07-22T12:23:34;3.40;;;2.40;;
45338;SDS011;31071;51.478;5.710;2023-07-22T12:26:01;4.07;;;2.47;;
45338;SDS011;31071;51.478;5.710;2023-07-22T12:28:26;4.00;;;2.20;;
45338;SDS011;31071;51.478;5.710;2023-07-22T12:30:52;3.63;;;2.53;;
45338;SDS011;31071;51.478;5.710;2023-07-22T12:33:17;3.78;;;2.50;;
45338;SDS011;31071;51.478;5.710;2023-07-22T12:35:43;7.32;;;2.60;;
45338;SDS011;31071;51.478;5.710;2023-07-22T12:38:08;6.28;;;2.40;;
45338;SDS011;31071;51.478;5.710;2023-07-22T12:40:34;6.18;;;2.80;;
45338;SDS011;31071;51.478;5.710;2023-07-22T12:42:59;4.05;;;2.30;;
45338;SDS011;31071;51.478;5.710;2023-07-22T12:45:25;3.25;;;2.22;;
45338;SDS011;31071;51.478;5.710;2023-07-22T12:47:50;5.55;;;2.72;;
45338;SDS011;31071;51.478;5.710;2023-07-22T12:50:16;5.18;;;2.30;;
45338;SDS011;31071;51.478;5.710;2023-07-22T12:52:41;5.32;;;2.60;;
45338;SDS011;31071;51.478;5.710;2023-07-22T12:55:07;3.60;;;2.88;;
45338;SDS011;31071;51.478;5.710;2023-07-22T12:57:33;3.30;;;2.40;;
45338;SDS011;31071;51.478;5.710;2023-07-22T12:59:58;4.07;;;2.72;;
45338;SDS011;31071;51.478;5.710;2023-07-22T13:02:24;4.03;;;2.70;;
45338;SDS011;31071;51.478;5.710;2023-07-22T13:04:51;3.83;;;2.58;;
45338;SDS011;31071;51.478;5.710;2023-07-22T13:07:16;4.47;;;2.70;;
45338;SDS011;31071;51.478;5.710;2023-07-22T13:09:42;3.13;;;2.22;;
45338;SDS011;31071;51.478;5.710;2023-07-22T13:12:08;4.28;;;3.03;;
45338;SDS011;31071;51.478;5.710;2023-07-22T13:14:34;7.22;;;2.83;;
45338;SDS011;31071;51.478;5.710;2023-07-22T13:16:59;3.47;;;2.60;;
45338;SDS011;31071;51.478;5.710;2023-07-22T13:19:25;2.72;;;2.53;;
45338;SDS011;31071;51.478;5.710;2023-07-22T13:21:50;4.13;;;2.88;;
45338;SDS011;31071;51.478;5.710;2023-07-22T13:24:16;3.92;;;2.80;;
45338;SDS011;31071;51.478;5.710;2023-07-22T13:26:41;3.17;;;2.70;;
45338;SDS011;31071;51.478;5.710;2023-07-22T13:29:07;2.97;;;2.45;;
45338;SDS011;31071;51.478;5.710;2023-07-22T13:31:33;4.78;;;3.25;;
45338;SDS011;31071;51.478;5.710;2023-07-22T13:33:59;3.92;;;2.47;;
45338;SDS011;31071;51.478;5.710;2023-07-22T13:36:25;3.75;;;2.50;;
45338;SDS011;31071;51.478;5.710;2023-07-22T13:38:50;3.97;;;2.58;;
45338;SDS011;31071;51.478;5.710;2023-07-22T13:41:16;4.22;;;2.42;;
45338;SDS011;31071;51.478;5.710;2023-07-22T13:43:41;3.95;;;2.20;;
45338;SDS011;31071;51.478;5.710;2023-07-22T13:46:07;4.20;;;2.20;;
45338;SDS011;31071;51.478;5.710;2023-07-22T13:48:33;6.43;;;2.47;;
45338;SDS011;31071;51.478;5.710;2023-07-22T13:50:59;3.28;;;2.40;;
45338;SDS011;31071;51.478;5.710;2023-07-22T13:53:24;5.53;;;2.47;;
45338;SDS011;31071;51.478;5.710;2023-07-22T13:55:50;3.97;;;2.00;;
45338;SDS011;31071;51.478;5.710;2023-07-22T13:58:15;5.38;;;2.45;;
45338;SDS011;31071;51.478;5.710;2023-07-22T14:00:41;5.32;;;1.83;;
45338;SDS011;31071;51.478;5.710;2023-07-22T14:03:06;3.92;;;1.65;;
45338;SDS011;31071;51.478;5.710;2023-07-22T14:05:32;4.40;;;2.05;;
45338;SDS011;31071;51.478;5.710;2023-07-22T14:07:57;2.88;;;1.95;;
45338;SDS011;31071;51.478;5.710;2023-07-22T14:10:23;5.38;;;2.45;;
45338;SDS011;31071;51.478;5.710;2023-07-22T14:12:48;3.92;;;2.08;;
45338;SDS011;31071;51.478;5.710;2023-07-22T14:15:14;4.43;;;2.00;;
45338;SDS011;31071;51.478;5.710;2023-07-22T14:17:40;4.00;;;1.85;;
45338;SDS011;31071;51.478;5.710;2023-07-22T14:20:05;3.08;;;1.80;;
45338;SDS011;31071;51.478;5.710;2023-07-22T14:22:32;3.67;;;2.00;;
45338;SDS011;31071;51.478;5.710;2023-07-22T14:24:57;1.95;;;1.73;;
45338;SDS011;31071;51.478;5.710;2023-07-22T14:27:23;3.50;;;1.80;;
45338;SDS011;31071;51.478;5.710;2023-07-22T14:29:48;3.38;;;2.10;;
45338;SDS011;31071;51.478;5.710;2023-07-22T14:32:14;2.58;;;1.88;;
45338;SDS011;31071;51.478;5.710;2023-07-22T14:34:41;3.55;;;2.28;;
45338;SDS011;31071;51.478;5.710;2023-07-22T14:37:07;3.90;;;2.00;;
45338;SDS011;31071;51.478;5.710;2023-07-22T14:39:35;3.88;;;1.98;;
45338;SDS011;31071;51.478;5.710;2023-07-22T14:42:00;3.70;;;2.15;;
45338;SDS011;31071;51.478;5.710;2023-07-22T14:44:26;4.93;;;2.30;;
45338;SDS011;31071;51.478;5.710;2023-07-22T14:46:51;3.28;;;2.33;;
45338;SDS011;31071;51.478;5.710;2023-07-22T14:49:17;5.95;;;2.90;;
45338;SDS011;31071;51.478;5.710;2023-07-22T14:51:42;4.13;;;2.70;;
45338;SDS011;31071;51.478;5.710;2023-07-22T14:54:08;2.25;;;2.05;;
45338;SDS011;31071;51.478;5.710;2023-07-22T14:56:33;5.55;;;2.30;;
45338;SDS011;31071;51.478;5.710;2023-07-22T14:58:59;4.50;;;2.45;;
45338;SDS011;31071;51.478;5.710;2023-07-22T15:01:25;5.00;;;2.67;;
45338;SDS011;31071;51.478;5.710;2023-07-22T15:03:51;5.20;;;3.20;;
45338;SDS011;31071;51.478;5.710;2023-07-22T15:06:17;3.97;;;2.38;;